createdAt,value
2022-10-18T00:00:10.812Z,78.89
2022-10-18T00:00:22.722Z,78.95
2022-10-18T00:00:34.799Z,79.00
2022-10-18T00:00:47.875Z,78.82
2022-10-18T00:01:00.091Z,78.75
2022-10-18T00:01:12.011Z,78.77
2022-10-18T00:01:23.897Z,78.73
2022-10-18T00:01:35.843Z,78.80
2022-10-18T00:01:47.820Z,78.86
2022-10-18T00:01:59.772Z,79.08
2022-10-18T00:02:11.995Z,78.94
2022-10-18T00:02:24.067Z,79.10
2022-10-18T00:02:36.048Z,79.22
2022-10-18T00:02:48.037Z,79.19
2022-10-18T00:03:00.004Z,79.59
2022-10-18T00:03:11.886Z,79.64
2022-10-18T00:03:23.835Z,79.63
2022-10-18T00:03:36.343Z,79.87
2022-10-18T00:03:48.340Z,79.84
2022-10-18T00:04:00.223Z,79.70
2022-10-18T00:04:12.265Z,79.66
2022-10-18T00:04:24.192Z,79.91
2022-10-18T00:04:36.369Z,79.96
2022-10-18T00:04:48.250Z,79.81
2022-10-18T00:05:00.251Z,79.94
2022-10-18T00:05:12.180Z,79.94
2022-10-18T00:05:24.097Z,79.91
2022-10-18T00:05:36.026Z,80.44
2022-10-18T00:05:49.477Z,80.32
2022-10-18T00:06:02.186Z,80.34
2022-10-18T00:06:14.206Z,80.64
2022-10-18T00:06:26.098Z,80.59
2022-10-18T00:06:41.132Z,80.64
2022-10-18T00:06:55.437Z,80.91
2022-10-18T00:07:07.421Z,80.77
2022-10-18T00:07:19.327Z,80.83
2022-10-18T00:07:31.355Z,80.53
2022-10-18T00:07:43.483Z,80.64
2022-10-18T00:07:55.369Z,80.65
2022-10-18T00:08:07.276Z,80.59
2022-10-18T00:08:20.222Z,80.69
2022-10-18T00:08:32.504Z,80.75
2022-10-18T00:08:44.427Z,80.86
2022-10-18T00:08:56.406Z,81.05
2022-10-18T00:09:08.575Z,80.87
2022-10-18T00:09:20.463Z,80.82
2022-10-18T00:09:32.366Z,80.74
2022-10-18T00:09:44.249Z,80.23
2022-10-18T00:09:56.149Z,80.37
2022-10-18T00:10:08.531Z,80.37
2022-10-18T00:10:20.534Z,79.99
2022-10-18T00:10:32.522Z,79.91
2022-10-18T00:10:45.192Z,79.85
2022-10-18T00:10:57.084Z,80.06
2022-10-18T00:11:09.227Z,79.74
2022-10-18T00:11:21.099Z,79.56
2022-10-18T00:11:33.311Z,79.81
2022-10-18T00:11:45.272Z,79.95
2022-10-18T00:11:57.540Z,80.03
2022-10-18T00:12:09.570Z,79.77
2022-10-18T00:12:21.467Z,79.78
2022-10-18T00:12:35.403Z,80.01
2022-10-18T00:13:04.112Z,80.05
2022-10-18T00:13:16.984Z,80.16
2022-10-18T00:13:28.906Z,79.78
2022-10-18T00:13:40.844Z,79.88
2022-10-18T00:13:52.784Z,79.85
2022-10-18T00:14:05.011Z,79.72
2022-10-18T00:14:17.065Z,79.63
2022-10-18T00:14:28.949Z,79.42
2022-10-18T00:14:40.854Z,79.58
2022-10-18T00:14:52.817Z,79.23
2022-10-18T00:15:07.562Z,79.31
2022-10-18T00:15:19.536Z,79.20
2022-10-18T00:15:31.416Z,79.43
2022-10-18T00:15:58.104Z,79.21
2022-10-18T00:16:16.035Z,78.92
2022-10-18T00:16:27.961Z,79.02
2022-10-18T00:16:39.859Z,78.94
2022-10-18T00:16:51.762Z,78.80
2022-10-18T00:17:04.045Z,78.79
2022-10-18T00:17:15.995Z,78.69
2022-10-18T00:17:28.119Z,78.53
2022-10-18T00:17:40.225Z,78.53
2022-10-18T00:17:52.092Z,78.57
2022-10-18T00:18:04.101Z,78.82
2022-10-18T00:18:16.026Z,78.85
2022-10-18T00:18:28.479Z,79.05
2022-10-18T00:18:41.101Z,78.96
2022-10-18T00:18:53.112Z,79.24
2022-10-18T00:19:05.002Z,79.26
2022-10-18T00:19:16.879Z,79.60
2022-10-18T00:19:29.473Z,79.54
2022-10-18T00:19:41.559Z,79.53
2022-10-18T00:19:53.472Z,79.72
2022-10-18T00:20:06.756Z,79.60
2022-10-18T00:20:18.669Z,79.88
2022-10-18T00:20:30.723Z,79.70
2022-10-18T00:20:42.623Z,79.67
2022-10-18T00:21:03.563Z,79.80
2022-10-18T00:21:18.481Z,79.60
2022-10-18T00:21:30.435Z,79.52
2022-10-18T00:21:56.551Z,79.52
2022-10-18T00:22:08.483Z,79.61
2022-10-18T00:22:20.370Z,79.62
2022-10-18T00:22:35.405Z,79.46
2022-10-18T00:22:47.392Z,79.19
2022-10-18T00:22:59.283Z,79.04
2022-10-18T00:23:11.434Z,79.10
2022-10-18T00:23:23.347Z,79.44
2022-10-18T00:23:36.191Z,79.07
2022-10-18T00:23:49.403Z,79.04
2022-10-18T00:24:01.361Z,79.35
2022-10-18T00:24:13.253Z,79.42
2022-10-18T00:24:25.203Z,79.31
2022-10-18T00:24:37.119Z,79.58
2022-10-18T00:24:49.132Z,79.60
2022-10-18T00:25:01.029Z,79.38
2022-10-18T00:25:12.945Z,79.31
2022-10-18T00:25:24.841Z,79.41
2022-10-18T00:25:36.756Z,79.31
2022-10-18T00:25:48.651Z,79.07
2022-10-18T00:26:06.175Z,79.10
2022-10-18T00:26:27.310Z,78.60
2022-10-18T00:26:39.191Z,78.82
2022-10-18T00:26:51.116Z,78.67
2022-10-18T00:27:03.004Z,78.57
2022-10-18T00:27:14.924Z,78.50
2022-10-18T00:27:29.808Z,78.40
2022-10-18T00:27:41.738Z,78.46
2022-10-18T00:27:53.641Z,78.39
2022-10-18T00:28:05.524Z,78.57
2022-10-18T00:28:17.393Z,78.51
2022-10-18T00:28:29.506Z,78.66
2022-10-18T00:28:42.256Z,78.22
2022-10-18T00:28:59.858Z,78.47
2022-10-18T00:29:15.198Z,78.61
2022-10-18T00:29:27.106Z,78.88
2022-10-18T00:29:39.057Z,78.97
2022-10-18T00:29:53.846Z,78.76
2022-10-18T00:30:06.352Z,78.95
2022-10-18T00:30:18.351Z,78.95
2022-10-18T00:30:30.254Z,78.92
2022-10-18T00:30:42.176Z,79.20
2022-10-18T00:30:54.114Z,78.93
2022-10-18T00:31:23.526Z,78.98
2022-10-18T00:31:37.613Z,78.88
2022-10-18T00:31:49.509Z,78.70
2022-10-18T00:32:01.574Z,78.60
2022-10-18T00:32:13.698Z,78.64
2022-10-18T00:32:26.523Z,78.46
2022-10-18T00:32:40.051Z,78.46
2022-10-18T00:32:51.992Z,78.35
2022-10-18T00:33:04.308Z,78.23
2022-10-18T00:33:16.198Z,78.11
2022-10-18T00:33:28.075Z,78.41
2022-10-18T00:33:40.683Z,78.02
2022-10-18T00:33:58.537Z,77.71
2022-10-18T00:34:14.775Z,77.75
2022-10-18T00:34:26.754Z,77.67
2022-10-18T00:34:40.163Z,77.70
2022-10-18T00:34:52.209Z,77.83
2022-10-18T00:35:04.886Z,77.98
2022-10-18T00:35:16.867Z,77.99
2022-10-18T00:35:28.825Z,77.58
2022-10-18T00:35:40.719Z,77.79
2022-10-18T00:35:52.626Z,77.83
2022-10-18T00:36:04.846Z,78.11
2022-10-18T00:36:17.011Z,78.21
2022-10-18T00:36:30.388Z,78.29
2022-10-18T00:36:43.522Z,78.17
2022-10-18T00:36:55.453Z,77.99
2022-10-18T00:37:07.394Z,78.26
2022-10-18T00:37:19.873Z,78.46
2022-10-18T00:37:32.246Z,78.49
2022-10-18T00:37:44.186Z,78.79
2022-10-18T00:37:56.082Z,78.49
2022-10-18T00:38:07.964Z,78.61
2022-10-18T00:38:19.842Z,78.58
2022-10-18T00:38:31.754Z,78.70
2022-10-18T00:38:44.493Z,78.81
2022-10-18T00:38:56.908Z,78.71
2022-10-18T00:39:13.990Z,78.90
2022-10-18T00:39:25.909Z,78.75
2022-10-18T00:39:37.792Z,78.67
2022-10-18T00:39:50.041Z,78.69
2022-10-18T00:40:02.172Z,78.19
2022-10-18T00:40:14.050Z,78.17
2022-10-18T00:40:25.945Z,78.19
2022-10-18T00:40:37.833Z,78.46
2022-10-18T00:40:49.740Z,78.18
2022-10-18T00:41:02.300Z,78.40
2022-10-18T00:41:17.640Z,78.10
2022-10-18T00:41:32.395Z,78.02
2022-10-18T00:41:45.163Z,78.03
2022-10-18T00:41:57.114Z,77.96
2022-10-18T00:42:16.716Z,77.92
2022-10-18T00:42:34.146Z,78.02
2022-10-18T00:42:46.203Z,77.75
2022-10-18T00:42:58.105Z,77.69
2022-10-18T00:43:15.834Z,77.66
2022-10-18T00:43:27.748Z,77.56
2022-10-18T00:44:07.041Z,77.64
2022-10-18T00:44:18.856Z,77.50
2022-10-18T00:44:30.697Z,77.51
2022-10-18T00:44:42.563Z,77.72
2022-10-18T00:45:04.857Z,78.06
2022-10-18T00:45:20.482Z,78.39
2022-10-18T00:45:32.373Z,78.18
2022-10-18T00:45:44.285Z,78.14
2022-10-18T00:45:56.240Z,78.23
2022-10-18T00:46:08.146Z,78.18
2022-10-18T00:46:20.380Z,78.40
2022-10-18T00:46:37.890Z,78.34
2022-10-18T00:46:51.303Z,78.57
2022-10-18T00:47:08.610Z,78.37
2022-10-18T00:47:20.639Z,78.81
2022-10-18T00:47:34.663Z,78.80
2022-10-18T00:47:51.789Z,78.70
2022-10-18T00:48:04.593Z,78.57
2022-10-18T00:48:20.514Z,78.66
2022-10-18T00:48:32.409Z,78.43
2022-10-18T00:48:44.427Z,78.54
2022-10-18T00:48:59.485Z,78.44
2022-10-18T00:49:15.434Z,78.36
2022-10-18T00:49:34.081Z,78.18
2022-10-18T00:49:51.452Z,78.07
2022-10-18T00:50:05.381Z,77.81
2022-10-18T00:50:18.821Z,77.88
2022-10-18T00:50:33.482Z,77.88
2022-10-18T00:50:47.391Z,77.78
2022-10-18T00:50:59.326Z,77.66
2022-10-18T00:51:11.833Z,77.86
2022-10-18T00:51:28.651Z,77.71
2022-10-18T00:52:04.768Z,77.96
2022-10-18T00:52:21.120Z,78.13
2022-10-18T00:52:44.190Z,78.31
2022-10-18T00:52:59.479Z,78.25
2022-10-18T00:53:17.706Z,78.28
2022-10-18T00:53:29.739Z,78.37
2022-10-18T00:53:41.678Z,78.44
2022-10-18T00:53:53.699Z,78.67
2022-10-18T00:54:05.862Z,78.77
2022-10-18T00:54:20.031Z,78.72
2022-10-18T00:54:34.779Z,78.86
2022-10-18T00:54:48.507Z,78.82
2022-10-18T00:55:00.836Z,79.06
2022-10-18T00:55:13.095Z,79.07
2022-10-18T00:55:26.176Z,78.73
2022-10-18T00:55:38.776Z,78.90
2022-10-18T00:55:50.862Z,78.94
2022-10-18T00:56:02.831Z,78.90
2022-10-18T00:56:14.911Z,78.89
2022-10-18T00:56:26.955Z,78.85
2022-10-18T00:56:39.386Z,79.18
2022-10-18T00:56:51.531Z,79.06
2022-10-18T00:57:04.725Z,79.05
2022-10-18T00:57:17.220Z,78.71
2022-10-18T00:57:29.325Z,78.86
2022-10-18T00:57:43.145Z,78.53
2022-10-18T00:57:56.202Z,78.58
2022-10-18T00:58:09.395Z,78.06
2022-10-18T00:58:21.381Z,78.38
2022-10-18T00:58:34.295Z,78.31
2022-10-18T00:58:48.501Z,78.36
2022-10-18T00:59:00.669Z,78.45
2022-10-18T00:59:16.078Z,78.35
2022-10-18T00:59:29.148Z,78.22
2022-10-18T00:59:43.133Z,78.32
2022-10-18T00:59:55.479Z,78.53
2022-10-18T01:00:09.869Z,78.37
2022-10-18T01:00:21.979Z,78.35
2022-10-18T01:00:38.591Z,78.29
2022-10-18T01:00:50.640Z,78.86
2022-10-18T01:01:02.616Z,78.61
2022-10-18T01:01:14.732Z,78.67
2022-10-18T01:01:28.427Z,78.49
2022-10-18T01:01:40.746Z,78.55
2022-10-18T01:01:53.369Z,78.47
2022-10-18T01:02:06.819Z,78.69
2022-10-18T01:02:18.934Z,78.79
2022-10-18T01:02:32.361Z,78.79
2022-10-18T01:02:46.673Z,78.72
2022-10-18T01:02:59.225Z,79.12
2022-10-18T01:03:11.159Z,78.98
2022-10-18T01:03:23.098Z,78.98
2022-10-18T01:03:36.202Z,78.94
2022-10-18T01:03:48.645Z,78.92
2022-10-18T01:04:00.837Z,78.94
2022-10-18T01:04:15.606Z,78.68
2022-10-18T01:04:27.532Z,78.74
2022-10-18T01:04:39.415Z,79.02
2022-10-18T01:04:51.370Z,78.37
2022-10-18T01:05:04.778Z,78.79
2022-10-18T01:05:19.131Z,78.76
2022-10-18T01:05:31.882Z,78.39
2022-10-18T01:05:47.388Z,78.30
2022-10-18T01:05:59.294Z,78.30
2022-10-18T01:06:11.228Z,78.52
2022-10-18T01:06:23.855Z,78.17
2022-10-18T01:06:50.349Z,78.17
2022-10-18T01:07:26.920Z,78.00
2022-10-18T01:07:55.224Z,78.01
2022-10-18T01:08:24.969Z,77.84
2022-10-18T01:08:44.451Z,77.74
2022-10-18T01:09:14.445Z,77.47
2022-10-18T01:09:42.147Z,77.32
2022-10-18T01:09:53.985Z,77.43
2022-10-18T01:10:23.861Z,78.09
2022-10-18T01:11:05.033Z,78.07
2022-10-18T01:11:44.424Z,78.46
2022-10-18T01:12:40.421Z,78.35
2022-10-18T01:13:36.446Z,77.91
2022-10-18T01:13:50.872Z,77.61
2022-10-18T01:14:38.437Z,77.83
2022-10-18T01:15:00.156Z,77.65
2022-10-18T01:15:20.000Z,77.50
2022-10-18T01:16:21.849Z,78.10
2022-10-18T01:16:44.399Z,78.17
2022-10-18T01:17:03.650Z,78.31
2022-10-18T01:17:25.700Z,78.35
2022-10-18T01:17:43.173Z,78.56
2022-10-18T01:18:30.082Z,78.60
2022-10-18T01:18:49.776Z,78.70
2022-10-18T01:19:14.058Z,78.87
2022-10-18T01:20:06.461Z,78.68
2022-10-18T01:20:39.800Z,78.69
2022-10-18T01:21:42.912Z,78.49
2022-10-18T01:22:05.254Z,78.41
2022-10-18T01:22:39.118Z,78.42
2022-10-18T01:23:00.182Z,78.38
2022-10-18T01:23:23.737Z,78.40
2022-10-18T01:24:00.032Z,78.17
2022-10-18T01:24:45.592Z,78.25
2022-10-18T01:25:10.361Z,78.16
2022-10-18T01:25:47.950Z,78.19
2022-10-18T01:26:41.797Z,78.02
2022-10-18T01:27:23.029Z,77.86
2022-10-18T01:28:27.313Z,77.38
2022-10-18T01:29:08.724Z,77.47
2022-10-18T01:29:37.585Z,77.94
2022-10-18T01:29:55.505Z,78.01
2022-10-18T01:30:07.347Z,78.17
2022-10-18T01:30:30.466Z,78.13
2022-10-18T01:30:57.816Z,78.33
2022-10-18T01:31:18.800Z,78.20
2022-10-18T01:31:37.999Z,78.25
2022-10-18T01:31:59.538Z,78.12
2022-10-18T01:32:18.944Z,77.84
2022-10-18T01:32:39.587Z,77.93
2022-10-18T01:32:54.839Z,77.90
2022-10-18T01:33:37.580Z,78.03
2022-10-18T01:33:53.937Z,77.75
2022-10-18T01:34:10.036Z,77.83
2022-10-18T01:34:25.738Z,77.83
2022-10-18T01:34:43.046Z,77.95
2022-10-18T01:35:10.911Z,77.89
2022-10-18T01:35:31.357Z,77.85
2022-10-18T01:35:54.176Z,77.69
2022-10-18T01:36:11.689Z,77.57
2022-10-18T01:36:27.763Z,77.67
2022-10-18T01:36:43.972Z,77.58
2022-10-18T01:36:57.518Z,77.75
2022-10-18T01:37:14.213Z,77.69
2022-10-18T01:37:29.186Z,77.51
2022-10-18T01:37:45.034Z,77.89
2022-10-18T01:38:00.845Z,78.07
2022-10-18T01:38:17.818Z,78.11
2022-10-18T01:38:31.901Z,78.06
2022-10-18T01:38:45.303Z,77.91
2022-10-18T01:39:00.968Z,77.82
2022-10-18T01:39:17.771Z,77.75
2022-10-18T01:39:36.297Z,77.61
2022-10-18T01:39:49.824Z,77.55
2022-10-18T01:40:06.647Z,77.98
2022-10-18T01:40:22.120Z,77.56
2022-10-18T01:40:35.640Z,77.73
2022-10-18T01:40:50.631Z,77.65
2022-10-18T01:41:05.270Z,77.54
2022-10-18T01:41:20.433Z,77.56
2022-10-18T01:41:35.643Z,77.29
2022-10-18T01:41:51.214Z,77.31
2022-10-18T01:42:07.443Z,77.33
2022-10-18T01:42:20.643Z,77.34
2022-10-18T01:42:32.824Z,77.18
2022-10-18T01:42:47.309Z,77.27
2022-10-18T01:43:00.681Z,77.16
2022-10-18T01:43:14.536Z,76.97
2022-10-18T01:43:29.979Z,76.83
2022-10-18T01:43:46.305Z,76.90
2022-10-18T01:44:02.225Z,76.67
2022-10-18T01:44:20.964Z,76.65
2022-10-18T01:44:34.860Z,77.15
2022-10-18T01:44:50.526Z,77.32
2022-10-18T01:45:04.338Z,77.25
2022-10-18T01:45:18.885Z,77.51
2022-10-18T01:45:32.131Z,77.28
2022-10-18T01:45:44.372Z,77.49
2022-10-18T01:45:58.454Z,77.75
2022-10-18T01:46:14.456Z,77.70
2022-10-18T01:46:28.043Z,77.72
2022-10-18T01:46:41.652Z,77.85
2022-10-18T01:46:56.283Z,77.76
2022-10-18T01:47:13.164Z,77.59
2022-10-18T01:47:25.478Z,77.61
2022-10-18T01:47:37.706Z,77.50
2022-10-18T01:47:51.066Z,77.53
2022-10-18T01:48:03.580Z,77.83
2022-10-18T01:48:16.387Z,77.69
2022-10-18T01:48:30.000Z,77.85
2022-10-18T01:48:42.174Z,77.82
2022-10-18T01:48:55.215Z,78.03
2022-10-18T01:49:07.265Z,77.62
2022-10-18T01:49:19.133Z,77.78
2022-10-18T01:49:31.032Z,77.77
2022-10-18T01:49:43.040Z,77.84
2022-10-18T01:50:02.953Z,77.41
2022-10-18T01:50:14.910Z,77.40
2022-10-18T01:50:31.847Z,77.32
2022-10-18T01:50:43.838Z,77.44
2022-10-18T01:50:55.942Z,77.34
2022-10-18T01:51:09.130Z,77.32
2022-10-18T01:51:29.250Z,77.19
2022-10-18T01:51:41.153Z,77.15
2022-10-18T01:51:53.861Z,77.14
2022-10-18T01:52:05.860Z,77.06
2022-10-18T01:52:17.789Z,77.27
2022-10-18T01:52:29.808Z,77.41
2022-10-18T01:52:51.448Z,77.48
2022-10-18T01:53:03.352Z,77.44
2022-10-18T01:53:23.119Z,77.80
2022-10-18T01:53:35.235Z,77.82
2022-10-18T01:53:47.216Z,78.00
2022-10-18T01:53:59.986Z,77.93
2022-10-18T01:54:17.211Z,77.79
2022-10-18T01:54:34.613Z,77.83
2022-10-18T01:54:49.038Z,77.85
2022-10-18T01:55:03.218Z,77.47
2022-10-18T01:55:15.758Z,77.64
2022-10-18T01:55:41.957Z,77.67
2022-10-18T01:56:11.265Z,77.79
2022-10-18T01:56:35.172Z,77.73
2022-10-18T01:57:09.501Z,77.39
2022-10-18T01:57:32.229Z,77.60
2022-10-18T01:58:12.101Z,77.78
2022-10-18T01:58:46.786Z,77.84
2022-10-18T01:59:11.936Z,77.68
2022-10-18T01:59:39.160Z,77.86
2022-10-18T01:59:56.685Z,77.50
2022-10-18T02:00:16.600Z,77.59
2022-10-18T02:00:44.302Z,77.59
2022-10-18T02:01:06.724Z,77.50
2022-10-18T02:01:30.518Z,77.70
2022-10-18T02:02:00.449Z,77.78
2022-10-18T02:02:21.212Z,77.71
2022-10-18T02:02:55.070Z,77.78
2022-10-18T02:03:22.966Z,77.63
2022-10-18T02:03:41.103Z,77.70
2022-10-18T02:03:59.244Z,77.83
2022-10-18T02:04:33.351Z,77.42
2022-10-18T02:04:54.881Z,77.42
2022-10-18T02:05:38.722Z,77.59
2022-10-18T02:05:58.820Z,77.68
2022-10-18T02:06:19.253Z,77.58
2022-10-18T02:06:38.248Z,77.80
2022-10-18T02:06:58.047Z,78.00
2022-10-18T02:07:21.872Z,78.09
2022-10-18T02:07:51.972Z,78.05
2022-10-18T02:08:24.284Z,77.97
2022-10-18T02:09:10.978Z,77.79
2022-10-18T02:09:31.781Z,77.79
2022-10-18T02:09:53.874Z,77.55
2022-10-18T02:10:11.169Z,77.48
2022-10-18T02:10:31.550Z,77.33
2022-10-18T02:11:02.883Z,77.54
2022-10-18T02:11:16.271Z,77.62
2022-10-18T02:11:31.187Z,77.60
2022-10-18T02:11:44.995Z,77.58
2022-10-18T02:11:57.851Z,77.72
2022-10-18T02:12:14.297Z,77.71
2022-10-18T02:12:29.763Z,77.88
2022-10-18T02:12:44.797Z,77.86
2022-10-18T02:12:58.202Z,77.35
2022-10-18T02:13:16.659Z,77.75
2022-10-18T02:13:35.701Z,77.85
2022-10-18T02:13:59.834Z,77.53
2022-10-18T02:14:14.513Z,77.73
2022-10-18T02:14:27.427Z,77.69
2022-10-18T02:14:41.259Z,77.78
2022-10-18T02:14:53.302Z,77.68
2022-10-18T02:15:07.592Z,77.75
2022-10-18T02:15:27.982Z,77.96
2022-10-18T02:15:45.082Z,77.78
2022-10-18T02:16:01.292Z,77.83
2022-10-18T02:16:28.146Z,77.62
2022-10-18T02:16:46.720Z,77.76
2022-10-18T02:17:05.370Z,77.50
2022-10-18T02:17:20.498Z,77.66
2022-10-18T02:17:32.458Z,77.62
2022-10-18T02:17:46.146Z,77.77
2022-10-18T02:17:58.333Z,77.58
2022-10-18T02:18:25.868Z,77.55
2022-10-18T02:18:44.349Z,77.63
2022-10-18T02:19:05.243Z,77.46
2022-10-18T02:19:32.755Z,77.48
2022-10-18T02:19:49.265Z,77.46
2022-10-18T02:20:06.278Z,77.53
2022-10-18T02:20:22.163Z,77.44
2022-10-18T02:20:36.459Z,77.29
2022-10-18T02:20:48.966Z,77.40
2022-10-18T02:21:02.977Z,77.38
2022-10-18T02:21:19.207Z,77.44
2022-10-18T02:21:32.305Z,77.39
2022-10-18T02:21:47.308Z,77.21
2022-10-18T02:22:00.512Z,77.20
2022-10-18T02:22:13.684Z,77.04
2022-10-18T02:22:31.237Z,77.23
2022-10-18T02:22:45.984Z,77.37
2022-10-18T02:23:01.309Z,77.28
2022-10-18T02:23:16.601Z,77.33
2022-10-18T02:23:43.253Z,77.29
2022-10-18T02:23:58.319Z,77.24
2022-10-18T02:24:12.876Z,77.30
2022-10-18T02:24:33.323Z,77.24
2022-10-18T02:24:51.048Z,76.90
2022-10-18T02:25:10.228Z,77.10
2022-10-18T02:25:25.342Z,77.02
2022-10-18T02:25:38.860Z,76.96
2022-10-18T02:25:51.711Z,76.70
2022-10-18T02:26:04.002Z,76.86
2022-10-18T02:26:16.776Z,76.91
2022-10-18T02:26:29.554Z,76.99
2022-10-18T02:26:41.945Z,76.95
2022-10-18T02:26:54.076Z,76.85
2022-10-18T02:27:06.141Z,77.19
2022-10-18T02:27:18.373Z,77.14
2022-10-18T02:27:30.563Z,76.92
2022-10-18T02:27:42.769Z,77.04
2022-10-18T02:27:55.326Z,76.95
2022-10-18T02:28:07.634Z,77.15
2022-10-18T02:28:20.033Z,76.92
2022-10-18T02:28:32.136Z,77.00
2022-10-18T02:28:45.793Z,76.91
2022-10-18T02:28:57.806Z,77.06
2022-10-18T02:29:10.315Z,77.18
2022-10-18T02:29:22.866Z,76.97
2022-10-18T02:29:35.330Z,76.94
2022-10-18T02:29:47.335Z,76.98
2022-10-18T02:29:59.314Z,76.98
2022-10-18T02:30:12.660Z,76.81
2022-10-18T02:30:33.230Z,76.96
2022-10-18T02:30:55.945Z,77.01
2022-10-18T02:31:29.158Z,77.09
2022-10-18T02:31:46.255Z,76.86
2022-10-18T02:32:18.946Z,76.99
2022-10-18T02:32:38.430Z,76.84
2022-10-18T02:33:04.024Z,76.72
2022-10-18T02:33:23.755Z,76.62
2022-10-18T02:33:45.740Z,76.74
2022-10-18T02:34:03.085Z,76.77
2022-10-18T02:34:29.577Z,76.67
2022-10-18T02:34:47.579Z,76.73
2022-10-18T02:35:01.325Z,76.85
2022-10-18T02:35:29.409Z,77.11
2022-10-18T02:35:47.198Z,77.20
2022-10-18T02:36:23.890Z,77.08
2022-10-18T02:36:57.916Z,77.49
2022-10-18T02:37:11.635Z,76.96
2022-10-18T02:37:46.938Z,77.14
2022-10-18T02:37:59.517Z,77.10
2022-10-18T02:38:14.499Z,77.12
2022-10-18T02:38:28.695Z,76.70
2022-10-18T02:38:42.169Z,77.08
2022-10-18T02:39:00.287Z,76.90
2022-10-18T02:39:16.619Z,77.03
2022-10-18T02:39:32.454Z,76.92
2022-10-18T02:39:48.447Z,76.92
2022-10-18T02:40:01.368Z,76.88
2022-10-18T02:40:14.005Z,77.04
2022-10-18T02:40:26.778Z,77.07
2022-10-18T02:40:38.653Z,76.82
2022-10-18T02:40:51.170Z,77.14
2022-10-18T02:41:03.151Z,77.03
2022-10-18T02:41:26.207Z,76.98
2022-10-18T02:41:38.138Z,77.18
2022-10-18T02:41:50.102Z,77.05
2022-10-18T02:42:07.940Z,77.06
2022-10-18T02:42:19.842Z,76.92
2022-10-18T02:42:43.878Z,77.04
2022-10-18T02:42:57.994Z,77.40
2022-10-18T02:43:09.922Z,77.30
2022-10-18T02:43:25.085Z,77.60
2022-10-18T02:43:37.097Z,77.57
2022-10-18T02:43:48.989Z,77.61
2022-10-18T02:44:00.878Z,77.69
2022-10-18T02:44:12.955Z,77.83
2022-10-18T02:44:25.063Z,77.52
2022-10-18T02:44:38.588Z,77.65
2022-10-18T02:44:50.475Z,77.58
2022-10-18T02:45:03.352Z,77.71
2022-10-18T02:45:15.952Z,77.70
2022-10-18T02:45:27.975Z,77.54
2022-10-18T02:45:40.060Z,77.48
2022-10-18T02:45:52.246Z,77.56
2022-10-18T02:46:04.173Z,77.58
2022-10-18T02:46:16.241Z,77.61
2022-10-18T02:46:28.241Z,77.48
2022-10-18T02:46:40.888Z,77.43
2022-10-18T02:46:53.492Z,77.45
2022-10-18T02:47:06.925Z,77.55
2022-10-18T02:47:18.820Z,77.65
2022-10-18T02:47:31.116Z,77.51
2022-10-18T02:47:43.463Z,77.52
2022-10-18T02:47:55.363Z,77.58
2022-10-18T02:48:07.605Z,77.38
2022-10-18T02:48:19.498Z,77.46
2022-10-18T02:48:31.390Z,77.51
2022-10-18T02:48:43.296Z,77.58
2022-10-18T02:48:55.189Z,77.59
2022-10-18T02:49:07.199Z,77.73
2022-10-18T02:49:19.090Z,77.55
2022-10-18T02:49:31.187Z,77.56
2022-10-18T02:49:43.175Z,77.36
2022-10-18T02:49:55.051Z,77.44
2022-10-18T02:50:07.354Z,77.46
2022-10-18T02:50:19.337Z,77.32
2022-10-18T02:50:31.262Z,77.51
2022-10-18T02:50:43.138Z,77.45
2022-10-18T02:50:55.076Z,77.56
2022-10-18T02:51:06.973Z,77.44
2022-10-18T02:51:18.848Z,77.29
2022-10-18T02:51:30.972Z,77.61
2022-10-18T02:51:43.005Z,77.63
2022-10-18T02:51:54.915Z,77.62
2022-10-18T02:52:06.882Z,77.75
2022-10-18T02:52:18.787Z,77.69
2022-10-18T02:52:30.692Z,77.64
2022-10-18T02:52:42.769Z,77.65
2022-10-18T02:52:54.679Z,77.58
2022-10-18T02:53:06.568Z,77.61
2022-10-18T02:53:18.465Z,77.69
2022-10-18T02:53:30.382Z,77.71
2022-10-18T02:53:42.303Z,77.70
2022-10-18T02:53:54.166Z,77.64
2022-10-18T02:54:06.272Z,77.74
2022-10-18T02:54:18.179Z,77.64
2022-10-18T02:54:30.041Z,77.55
2022-10-18T02:54:41.959Z,77.61
2022-10-18T02:54:53.850Z,77.56
2022-10-18T02:55:07.136Z,77.27
2022-10-18T02:55:19.614Z,77.43
2022-10-18T02:55:31.606Z,77.33
2022-10-18T02:55:43.639Z,77.30
2022-10-18T02:55:55.573Z,77.57
2022-10-18T02:56:07.812Z,77.37
2022-10-18T02:56:19.714Z,77.36
2022-10-18T02:56:31.922Z,77.28
2022-10-18T02:56:43.858Z,77.22
2022-10-18T02:56:55.741Z,77.35
2022-10-18T02:57:08.453Z,77.19
2022-10-18T02:57:20.339Z,77.03
2022-10-18T02:57:32.865Z,76.87
2022-10-18T02:57:45.039Z,77.02
2022-10-18T02:57:56.925Z,77.05
2022-10-18T02:58:08.806Z,76.83
2022-10-18T02:58:20.674Z,77.02
2022-10-18T02:58:32.652Z,76.80
2022-10-18T02:58:44.557Z,77.06
2022-10-18T02:58:56.590Z,77.08
2022-10-18T02:59:08.539Z,77.28
2022-10-18T02:59:20.417Z,77.66
2022-10-18T02:59:32.300Z,77.94
2022-10-18T02:59:44.176Z,78.25
2022-10-18T02:59:56.400Z,78.44
2022-10-18T03:00:09.049Z,78.38
2022-10-18T03:00:21.006Z,78.63
2022-10-18T03:00:32.891Z,78.49
2022-10-18T03:00:44.813Z,78.24
2022-10-18T03:00:56.735Z,78.14
2022-10-18T03:01:08.653Z,78.19
2022-10-18T03:01:20.646Z,78.13
2022-10-18T03:01:33.323Z,77.93
2022-10-18T03:01:45.398Z,77.80
2022-10-18T03:01:57.356Z,77.91
2022-10-18T03:02:09.289Z,77.79
2022-10-18T03:02:21.173Z,77.83
2022-10-18T03:02:33.187Z,77.57
2022-10-18T03:02:45.086Z,77.59
2022-10-18T03:02:56.988Z,77.73
2022-10-18T03:03:08.937Z,77.36
2022-10-18T03:03:21.199Z,77.47
2022-10-18T03:03:33.096Z,77.31
2022-10-18T03:03:44.960Z,77.35
2022-10-18T03:03:57.688Z,77.10
2022-10-18T03:04:09.912Z,77.11
2022-10-18T03:04:21.881Z,77.51
2022-10-18T03:04:33.830Z,77.24
2022-10-18T03:04:45.707Z,77.30
2022-10-18T03:04:57.977Z,77.60
2022-10-18T03:05:09.938Z,77.39
2022-10-18T03:05:21.849Z,77.51
2022-10-18T03:05:33.718Z,77.50
2022-10-18T03:05:49.461Z,77.62
2022-10-18T03:06:01.378Z,77.48
2022-10-18T03:06:13.279Z,77.38
2022-10-18T03:06:25.275Z,77.31
2022-10-18T03:06:37.271Z,77.53
2022-10-18T03:06:49.153Z,77.43
2022-10-18T03:07:01.040Z,77.20
2022-10-18T03:07:13.020Z,77.51
2022-10-18T03:07:24.946Z,77.41
2022-10-18T03:07:36.868Z,77.47
2022-10-18T03:07:48.773Z,77.47
2022-10-18T03:08:00.653Z,77.31
2022-10-18T03:08:12.526Z,77.32
2022-10-18T03:08:24.987Z,77.53
2022-10-18T03:08:38.148Z,77.59
2022-10-18T03:08:50.074Z,77.57
2022-10-18T03:09:03.795Z,77.63
2022-10-18T03:09:15.872Z,77.44
2022-10-18T03:09:27.760Z,77.55
2022-10-18T03:09:39.646Z,77.57
2022-10-18T03:09:51.619Z,77.52
2022-10-18T03:10:03.749Z,77.64
2022-10-18T03:10:15.675Z,77.50
2022-10-18T03:10:27.563Z,77.35
2022-10-18T03:10:39.488Z,77.57
2022-10-18T03:10:51.508Z,77.29
2022-10-18T03:11:03.446Z,77.40
2022-10-18T03:11:15.316Z,77.53
2022-10-18T03:11:27.201Z,77.71
2022-10-18T03:11:39.076Z,77.69
2022-10-18T03:11:50.998Z,77.55
2022-10-18T03:12:02.984Z,77.66
2022-10-18T03:12:14.952Z,77.89
2022-10-18T03:12:26.837Z,77.80
2022-10-18T03:12:38.737Z,77.80
2022-10-18T03:12:50.646Z,77.84
2022-10-18T03:13:02.520Z,77.87
2022-10-18T03:13:14.509Z,77.97
2022-10-18T03:13:26.494Z,77.68
2022-10-18T03:13:38.443Z,77.57
2022-10-18T03:13:51.006Z,77.81
2022-10-18T03:14:02.992Z,77.62
2022-10-18T03:14:14.917Z,77.76
2022-10-18T03:14:26.838Z,77.83
2022-10-18T03:14:38.760Z,77.76
2022-10-18T03:14:50.678Z,77.71
2022-10-18T03:15:02.871Z,77.79
2022-10-18T03:15:14.820Z,77.94
2022-10-18T03:15:26.745Z,77.88
2022-10-18T03:15:38.710Z,77.88
2022-10-18T03:15:50.633Z,77.77
2022-10-18T03:16:02.612Z,77.66
2022-10-18T03:16:14.522Z,77.64
2022-10-18T03:16:26.433Z,77.69
2022-10-18T03:16:38.356Z,77.56
2022-10-18T03:16:50.296Z,77.70
2022-10-18T03:17:02.192Z,77.45
2022-10-18T03:17:14.133Z,77.52
2022-10-18T03:17:26.118Z,77.58
2022-10-18T03:17:38.025Z,77.50
2022-10-18T03:17:49.901Z,77.63
2022-10-18T03:18:01.810Z,77.64
2022-10-18T03:18:13.930Z,77.40
2022-10-18T03:18:25.907Z,77.58
2022-10-18T03:18:37.965Z,77.40
2022-10-18T03:18:49.877Z,77.51
2022-10-18T03:19:01.844Z,77.55
2022-10-18T03:19:13.875Z,77.63
2022-10-18T03:19:26.022Z,77.49
2022-10-18T03:19:38.689Z,77.70
2022-10-18T03:19:50.639Z,77.72